Time;durP1;ratioP1;P1;durP2;ratioP2;P2;SDS_P1;SDS_P2;PMS_P1;PMS_P2;Temp;Humidity;BMP_temperature;BMP_pressure;BME280_temperature;BME280_humidity;BME280_pressure;Samples;Min_cycle;Max_cycle;Signal;HPM_P1;HPM_P2
2022/03/28 00:01:11;;;;;;;27.53;12.40;;;5.40;99.90;;;;;;5065264;28;20181;-80
2022/03/28 00:03:37;;;;;;;21.13;13.20;;;5.40;99.90;;;;;;5066772;28;20198;-80
2022/03/28 00:06:04;;;;;;;18.50;12.03;;;5.30;99.90;;;;;;5063516;28;20187;-80
2022/03/28 00:08:30;;;;;;;19.70;12.37;;;5.30;99.90;;;;;;5064764;28;20194;-80
2022/03/28 00:10:56;;;;;;;19.33;12.77;;;5.30;99.90;;;;;;5064275;28;20177;-80
2022/03/28 00:13:22;;;;;;;22.23;12.63;;;5.20;99.90;;;;;;5064603;28;20285;-80
2022/03/28 00:15:48;;;;;;;22.73;12.50;;;5.20;99.90;;;;;;5063054;28;20650;-80
2022/03/28 00:18:14;;;;;;;20.77;12.23;;;5.20;99.90;;;;;;5063563;28;20272;-80
2022/03/28 00:20:40;;;;;;;19.73;12.30;;;5.10;99.90;;;;;;5068022;28;20197;-80
2022/03/28 00:23:06;;;;;;;18.93;12.27;;;5.10;99.90;;;;;;5061319;28;20210;-79
2022/03/28 00:25:34;;;;;;;21.07;12.40;;;5.00;99.90;;;;;;5060065;28;20174;-80
2022/03/28 00:27:59;;;;;;;21.43;12.67;;;5.00;99.90;;;;;;5058853;28;20587;-80
2022/03/28 00:30:25;;;;;;;22.70;12.63;;;4.90;99.90;;;;;;5059143;28;20182;-80
2022/03/28 00:32:51;;;;;;;21.27;12.97;;;4.90;99.90;;;;;;5058436;28;20263;-80
2022/03/28 00:35:17;;;;;;;18.37;12.07;;;4.90;99.90;;;;;;5060328;28;20182;-80
2022/03/28 00:37:43;;;;;;;22.47;12.97;;;4.90;99.90;;;;;;5058554;28;20207;-80
2022/03/28 00:40:10;;;;;;;19.17;12.33;;;4.80;99.90;;;;;;5058774;28;20204;-80
2022/03/28 00:42:37;;;;;;;23.90;12.90;;;4.80;99.90;;;;;;5058571;28;20209;-80
2022/03/28 00:45:04;;;;;;;18.10;12.70;;;4.80;99.90;;;;;;5060131;28;20624;-80
2022/03/28 00:47:30;;;;;;;16.93;11.73;;;4.80;99.90;;;;;;5057925;28;20202;-80
2022/03/28 00:49:56;;;;;;;17.50;11.90;;;4.90;99.90;;;;;;5057879;28;20175;-80
2022/03/28 00:52:23;;;;;;;21.73;12.47;;;4.90;99.90;;;;;;5058510;28;20188;-80
2022/03/28 00:54:48;;;;;;;23.63;11.77;;;4.90;99.90;;;;;;5058885;28;20183;-80
2022/03/28 00:57:14;;;;;;;19.53;11.53;;;4.90;99.90;;;;;;5059318;28;20237;-79
2022/03/28 00:59:40;;;;;;;20.50;12.30;;;4.90;99.90;;;;;;5059665;28;20545;-79
2022/03/28 01:02:06;;;;;;;19.27;11.47;;;4.80;99.90;;;;;;5057675;28;20178;-79
2022/03/28 01:04:32;;;;;;;20.80;11.60;;;4.80;99.90;;;;;;5058137;28;20189;-79
2022/03/28 01:06:58;;;;;;;20.70;12.27;;;4.80;99.90;;;;;;5058337;28;20335;-80
2022/03/28 01:09:24;;;;;;;19.47;11.43;;;4.80;99.90;;;;;;5058032;28;20193;-79
2022/03/28 01:11:52;;;;;;;16.07;10.73;;;4.80;99.90;;;;;;5059938;28;20170;-79
2022/03/28 01:14:18;;;;;;;19.90;11.90;;;4.80;99.90;;;;;;5059257;28;20631;-80
2022/03/28 01:19:28;;;;;;;23.07;13.20;;;4.80;99.90;;;;;;5059532;28;20197;-80
2022/03/28 01:21:54;;;;;;;17.87;10.70;;;4.70;99.90;;;;;;5061239;28;20182;-79
2022/03/28 01:24:19;;;;;;;22.53;12.30;;;4.70;99.90;;;;;;5063607;28;20623;-79
2022/03/28 01:26:46;;;;;;;20.53;12.77;;;4.60;99.90;;;;;;5064523;28;20524;-79
2022/03/28 01:29:13;;;;;;;18.50;12.80;;;4.50;99.90;;;;;;5064491;28;20227;-79
2022/03/28 01:31:39;;;;;;;19.83;11.80;;;4.50;99.90;;;;;;5063028;28;20175;-79
2022/03/28 01:34:05;;;;;;;16.00;11.07;;;4.50;99.90;;;;;;5063233;28;20260;-79
2022/03/28 01:36:31;;;;;;;21.10;11.80;;;4.50;99.90;;;;;;5065736;28;20675;-79
2022/03/28 01:38:57;;;;;;;19.20;11.90;;;4.50;99.90;;;;;;5064902;28;20216;-79
2022/03/28 01:41:23;;;;;;;30.00;16.63;;;4.40;99.90;;;;;;5063933;28;20173;-79
2022/03/28 01:43:48;;;;;;;23.33;13.77;;;4.30;99.90;;;;;;5064453;28;20208;-79
2022/03/28 01:46:14;;;;;;;22.00;12.17;;;4.00;99.90;;;;;;5063876;28;20174;-79
2022/03/28 01:48:40;;;;;;;18.23;11.70;;;4.10;99.90;;;;;;5063955;28;20264;-79
2022/03/28 01:51:05;;;;;;;16.73;10.87;;;3.90;99.90;;;;;;5065304;28;20174;-79
2022/03/28 01:53:31;;;;;;;25.50;14.20;;;4.00;99.90;;;;;;5063505;28;20185;-79
2022/03/28 01:55:56;;;;;;;23.37;13.80;;;3.90;99.90;;;;;;5065487;28;20201;-79
2022/03/28 01:58:22;;;;;;;19.27;12.00;;;3.80;99.90;;;;;;5063850;28;20268;-79
2022/03/28 02:00:48;;;;;;;23.97;14.67;;;3.80;99.90;;;;;;5065370;28;20181;-79
2022/03/28 02:03:13;;;;;;;25.60;14.17;;;3.70;99.90;;;;;;5063795;28;20201;-79
2022/03/28 02:05:39;;;;;;;23.77;15.23;;;3.80;99.90;;;;;;5065319;28;20174;-79
2022/03/28 02:08:05;;;;;;;18.83;11.50;;;3.70;99.90;;;;;;5061937;28;20218;-80
2022/03/28 02:10:31;;;;;;;21.70;13.17;;;3.70;99.90;;;;;;5063899;28;20170;-80
2022/03/28 02:12:56;;;;;;;23.43;12.17;;;3.70;99.90;;;;;;5063259;28;20174;-79
2022/03/28 02:15:22;;;;;;;17.63;11.93;;;3.70;99.90;;;;;;5063482;28;20177;-79
2022/03/28 02:17:48;;;;;;;18.70;11.47;;;3.70;99.90;;;;;;5064247;28;20193;-79
2022/03/28 02:20:15;;;;;;;17.97;12.03;;;3.70;99.90;;;;;;5063217;28;20185;-79
2022/03/28 02:22:42;;;;;;;19.73;11.40;;;3.70;99.90;;;;;;5063373;28;20296;-79
2022/03/28 02:25:09;;;;;;;17.10;11.37;;;3.70;99.90;;;;;;5063191;28;20205;-79
2022/03/28 02:27:35;;;;;;;21.53;12.63;;;3.60;99.90;;;;;;5065299;28;20217;-79
2022/03/28 02:30:03;;;;;;;18.23;12.13;;;3.40;99.90;;;;;;5064473;28;20177;-78
2022/03/28 02:32:28;;;;;;;17.10;11.60;;;3.40;99.90;;;;;;5064206;28;20174;-79
2022/03/28 02:34:54;;;;;;;22.70;12.57;;;3.40;99.90;;;;;;5063907;28;20178;-79
2022/03/28 02:37:20;;;;;;;18.63;10.63;;;3.40;99.90;;;;;;5063471;28;20201;-79
2022/03/28 02:39:45;;;;;;;23.73;11.83;;;3.30;99.90;;;;;;5064416;28;20190;-79
2022/03/28 02:42:11;;;;;;;17.63;10.93;;;3.30;99.90;;;;;;5064019;28;20189;-79
2022/03/28 02:44:37;;;;;;;18.27;10.60;;;3.20;99.90;;;;;;5063405;28;20696;-80
2022/03/28 02:47:04;;;;;;;15.60;10.53;;;3.20;99.90;;;;;;5063893;28;20225;-80
2022/03/28 02:49:29;;;;;;;16.53;9.87;;;3.20;99.90;;;;;;5064839;28;20200;-80
2022/03/28 02:51:55;;;;;;;17.70;9.90;;;3.30;99.90;;;;;;5064237;28;20181;-80
2022/03/28 02:54:21;;;;;;;16.77;9.90;;;3.30;99.90;;;;;;5063871;28;20188;-79
2022/03/28 02:56:46;;;;;;;18.07;10.60;;;3.30;99.90;;;;;;5065811;28;20275;-79
2022/03/28 02:59:12;;;;;;;13.47;9.37;;;3.30;99.90;;;;;;5065493;28;20181;-81
2022/03/28 03:01:38;;;;;;;15.50;10.03;;;3.30;99.90;;;;;;5063331;28;20193;-79
2022/03/28 03:04:04;;;;;;;17.50;10.50;;;3.20;99.90;;;;;;5063152;28;20216;-79
2022/03/28 03:06:29;;;;;;;18.23;11.17;;;3.30;99.90;;;;;;5063054;28;20436;-79
2022/03/28 03:08:55;;;;;;;16.27;10.50;;;3.30;99.90;;;;;;5062929;28;20239;-79
2022/03/28 03:11:21;;;;;;;17.33;10.00;;;3.30;99.90;;;;;;5064428;28;20291;-79
2022/03/28 03:13:48;;;;;;;15.63;10.03;;;3.30;99.90;;;;;;5068439;28;20188;-79
2022/03/28 03:16:14;;;;;;;16.40;11.07;;;3.40;99.90;;;;;;5061218;28;20251;-79
2022/03/28 03:18:40;;;;;;;14.63;9.20;;;3.40;99.90;;;;;;5057782;28;20189;-78
2022/03/28 03:21:05;;;;;;;15.47;10.43;;;3.40;99.90;;;;;;5057142;28;20220;-79
2022/03/28 03:23:31;;;;;;;16.60;9.63;;;3.40;99.90;;;;;;5056239;28;20205;-78
2022/03/28 03:25:57;;;;;;;15.30;9.77;;;3.50;99.90;;;;;;5059801;28;20624;-79
2022/03/28 03:28:22;;;;;;;13.73;9.50;;;3.50;99.90;;;;;;5061159;28;20732;-80
2022/03/28 03:30:48;;;;;;;15.70;9.37;;;3.40;99.90;;;;;;5062315;28;20173;-80
2022/03/28 03:33:14;;;;;;;16.83;10.00;;;3.50;99.90;;;;;;5063242;28;20173;-79
2022/03/28 03:35:40;;;;;;;13.83;9.53;;;3.50;99.90;;;;;;5062417;28;20178;-80
2022/03/28 03:38:06;;;;;;;17.77;9.47;;;3.50;99.90;;;;;;5060927;28;20197;-80
2022/03/28 03:40:32;;;;;;;14.77;10.13;;;3.40;99.90;;;;;;5062962;28;20166;-79
2022/03/28 03:42:57;;;;;;;15.63;8.83;;;3.40;99.90;;;;;;5059975;28;20698;-79
2022/03/28 03:45:23;;;;;;;15.20;9.67;;;3.50;99.90;;;;;;5061750;28;20177;-79
2022/03/28 03:47:49;;;;;;;17.73;9.33;;;3.30;99.90;;;;;;5061388;28;20604;-80
2022/03/28 03:50:14;;;;;;;15.50;9.70;;;3.40;99.90;;;;;;5061869;28;20173;-80
2022/03/28 03:52:40;;;;;;;16.17;9.30;;;3.50;99.90;;;;;;5061265;28;20204;-80
2022/03/28 03:55:07;;;;;;;14.10;8.93;;;3.40;99.90;;;;;;5062761;28;20589;-80
2022/03/28 03:57:33;;;;;;;13.87;8.23;;;3.50;99.90;;;;;;5063237;28;20249;-80
2022/03/28 03:59:58;;;;;;;13.77;9.53;;;3.50;99.90;;;;;;5063267;28;20182;-79
2022/03/28 04:02:24;;;;;;;16.30;9.33;;;3.50;99.90;;;;;;5062542;28;20197;-80
2022/03/28 04:04:50;;;;;;;17.00;8.13;;;3.50;99.90;;;;;;5062156;28;20651;-80
2022/03/28 04:07:15;;;;;;;14.00;8.50;;;3.50;99.90;;;;;;5063390;28;20196;-79
2022/03/28 04:09:41;;;;;;;11.90;7.93;;;3.60;99.90;;;;;;5063335;28;20180;-79
2022/03/28 04:12:08;;;;;;;12.30;7.60;;;3.50;99.90;;;;;;5060585;28;20181;-79
2022/03/28 04:14:34;;;;;;;13.90;8.87;;;3.60;99.90;;;;;;5061854;28;20180;-80
2022/03/28 04:16:59;;;;;;;13.73;8.77;;;3.60;99.90;;;;;;5060141;28;20440;-80
2022/03/28 04:19:25;;;;;;;11.00;7.70;;;3.50;99.90;;;;;;5060309;28;20177;-80
2022/03/28 04:21:51;;;;;;;13.73;8.40;;;3.60;99.90;;;;;;5062244;28;20185;-80
2022/03/28 04:24:17;;;;;;;11.90;8.97;;;3.60;99.90;;;;;;5060732;28;20460;-80
2022/03/28 04:26:43;;;;;;;11.70;8.47;;;3.60;99.90;;;;;;5060647;28;20228;-80
2022/03/28 04:29:09;;;;;;;15.17;8.57;;;3.50;99.90;;;;;;5060327;28;20181;-80
2022/03/28 04:31:37;;;;;;;15.03;7.97;;;3.30;99.90;;;;;;5060066;28;20184;-80
2022/03/28 04:34:03;;;;;;;14.47;8.80;;;3.20;99.90;;;;;;5062393;28;20178;-80
2022/03/28 04:36:29;;;;;;;18.57;9.90;;;3.00;99.90;;;;;;5061802;28;20444;-80
2022/03/28 04:38:54;;;;;;;12.10;8.30;;;2.90;99.90;;;;;;5061117;28;20185;-80
2022/03/28 04:41:20;;;;;;;13.77;9.53;;;2.80;99.90;;;;;;5059580;28;20231;-79
2022/03/28 04:43:45;;;;;;;16.10;9.00;;;2.80;99.90;;;;;;5056733;28;20201;-79
2022/03/28 04:46:12;;;;;;;12.33;9.10;;;2.70;99.90;;;;;;5062139;28;20175;-79
2022/03/28 04:48:37;;;;;;;13.63;8.43;;;2.70;99.90;;;;;;5060779;28;20554;-79
2022/03/28 04:51:03;;;;;;;13.67;8.37;;;2.80;99.90;;;;;;5063928;28;20453;-79
2022/03/28 04:53:29;;;;;;;14.47;8.67;;;2.70;99.90;;;;;;5070737;28;20181;-79
2022/03/28 04:55:54;;;;;;;13.90;9.37;;;2.70;99.90;;;;;;5072759;28;20198;-79
2022/03/28 04:58:20;;;;;;;13.50;8.53;;;2.70;99.90;;;;;;5069900;28;20207;-79
2022/03/28 05:00:46;;;;;;;11.23;8.00;;;;;;;;;;5063560;28;20646;-80
2022/03/28 05:03:12;;;;;;;15.17;9.43;;;2.70;99.90;;;;;;5062768;28;20206;-79
2022/03/28 05:05:37;;;;;;;17.80;9.60;;;2.80;99.90;;;;;;5062921;28;20174;-79
2022/03/28 05:08:03;;;;;;;20.30;9.80;;;;;;;;;;5062006;28;20216;-79
2022/03/28 05:10:30;;;;;;;13.83;8.87;;;;;;;;;;5061417;28;20555;-79
2022/03/28 05:12:55;;;;;;;18.03;10.30;;;3.00;99.90;;;;;;5059587;28;20408;-80
2022/03/28 05:15:21;;;;;;;17.40;9.40;;;;;;;;;;5062359;28;20200;-79
2022/03/28 05:17:47;;;;;;;14.73;9.80;;;;;;;;;;5061078;28;20204;-79
2022/03/28 05:20:14;;;;;;;15.13;9.77;;;;;;;;;;5059495;28;20442;-79
2022/03/28 05:22:40;;;;;;;17.30;9.70;;;;;;;;;;5059445;28;20550;-79
2022/03/28 05:25:07;;;;;;;18.40;10.97;;;3.10;99.90;;;;;;5062070;28;20431;-79
2022/03/28 05:27:33;;;;;;;15.10;9.47;;;;;;;;;;5060268;28;20463;-79
2022/03/28 05:29:59;;;;;;;20.30;9.77;;;;;;;;;;5062938;28;20412;-79
2022/03/28 05:32:25;;;;;;;19.63;9.70;;;;;;;;;;5061378;28;20458;-79
2022/03/28 05:34:51;;;;;;;17.10;9.47;;;;;;;;;;5061001;28;20400;-79
2022/03/28 05:37:18;;;;;;;23.17;10.97;;;3.20;99.90;;;;;;5060708;28;20439;-79
2022/03/28 05:39:44;;;;;;;17.00;9.37;;;3.30;99.90;;;;;;5060075;28;20181;-79
2022/03/28 05:42:10;;;;;;;22.73;10.33;;;3.00;99.90;;;;;;5059332;28;20852;-79
2022/03/28 05:44:38;;;;;;;16.47;10.40;;;3.30;99.90;;;;;;5061605;28;20177;-79
2022/03/28 05:47:05;;;;;;;15.43;9.83;;;;;;;;;;5060932;28;20436;-79
2022/03/28 05:49:31;;;;;;;17.43;10.00;;;3.40;99.90;;;;;;5062315;28;20886;-79
2022/03/28 05:51:57;;;;;;;13.80;8.43;;;;;;;;;;5063204;28;20176;-80
2022/03/28 05:54:23;;;;;;;19.97;9.67;;;;;;;;;;5062903;28;20186;-79
2022/03/28 05:56:49;;;;;;;14.63;9.43;;;;;;;;;;5061662;28;20504;-80
2022/03/28 05:59:15;;;;;;;17.30;9.53;;;3.60;99.90;;;;;;5062635;28;20636;-81
2022/03/28 06:01:41;;;;;;;16.57;9.73;;;3.50;99.90;;;;;;5061921;28;20189;-80
2022/03/28 06:04:07;;;;;;;23.57;11.73;;;3.40;99.90;;;;;;5061523;28;20214;-79
2022/03/28 06:06:33;;;;;;;20.73;10.13;;;3.60;99.90;;;;;;5061733;28;20197;-79
2022/03/28 06:09:00;;;;;;;22.13;11.07;;;;;;;;;;5064228;28;20189;-80
2022/03/28 06:11:25;;;;;;;16.50;10.47;;;3.80;99.90;;;;;;5062274;28;20186;-78
2022/03/28 06:13:53;;;;;;;16.13;10.07;;;;;;;;;;5064147;28;20179;-80
2022/03/28 06:16:19;;;;;;;23.47;9.57;;;4.40;99.90;;;;;;5061574;28;20200;-79
2022/03/28 06:18:45;;;;;;;10.87;8.10;;;;;;;;;;5064023;28;20182;-80
2022/03/28 06:21:11;;;;;;;10.63;7.37;;;;;;;;;;5065574;28;20178;-81
2022/03/28 06:23:37;;;;;;;14.50;7.80;;;;;;;;;;5063120;28;20248;-79
2022/03/28 06:26:04;;;;;;;12.77;8.13;;;4.90;99.90;;;;;;5065926;28;20891;-80
2022/03/28 06:28:30;;;;;;;11.07;7.57;;;5.90;99.90;;;;;;5063964;28;20201;-79
2022/03/28 06:30:57;;;;;;;13.03;7.30;;;5.10;99.90;;;;;;5065633;28;20175;-80
2022/03/28 06:33:23;;;;;;;11.67;7.13;;;;;;;;;;5065056;28;20256;-81
2022/03/28 06:35:49;;;;;;;10.63;7.20;;;5.50;99.90;;;;;;5065381;28;20401;-79
2022/03/28 06:38:15;;;;;;;12.73;7.60;;;;;;;;;;5064252;28;20270;-80
2022/03/28 06:40:41;;;;;;;12.93;7.67;;;5.70;99.90;;;;;;5064899;28;20218;-79
2022/03/28 06:43:07;;;;;;;12.13;7.80;;;;;;;;;;5065557;28;20288;-80
2022/03/28 06:45:36;;;;;;;10.43;7.10;;;5.70;99.90;;;;;;5064328;28;20179;-80
2022/03/28 06:48:02;;;;;;;12.20;6.60;;;5.80;99.90;;;;;;5064516;28;20206;-80
2022/03/28 06:50:28;;;;;;;9.87;6.83;;;5.90;99.90;;;;;;5067792;28;20173;-80
2022/03/28 06:52:53;;;;;;;9.63;6.60;;;6.00;99.90;;;;;;5066605;28;20524;-81
2022/03/28 06:55:20;;;;;;;12.50;7.27;;;6.10;99.90;;;;;;5066322;28;20198;-80
2022/03/28 06:57:46;;;;;;;10.53;7.33;;;6.20;99.90;;;;;;5064655;28;20198;-80
2022/03/28 07:00:13;;;;;;;11.67;7.80;;;6.20;99.90;;;;;;5063486;28;20268;-80
2022/03/28 07:02:39;;;;;;;10.47;7.33;;;6.30;99.90;;;;;;5060964;28;20217;-78
2022/03/28 07:05:06;;;;;;;12.47;8.20;;;6.50;99.90;;;;;;5061681;28;20625;-78
2022/03/28 07:07:44;;;;;;;13.00;7.37;;;6.60;99.90;;;;;;5061222;28;20213;-80
2022/03/28 07:10:12;;;;;;;10.60;7.87;;;6.70;99.90;;;;;;5064027;28;20229;-78
2022/03/28 07:12:39;;;;;;;12.43;7.67;;;6.90;99.90;;;;;;5063590;28;20525;-79
2022/03/28 07:15:06;;;;;;;12.23;7.47;;;7.00;99.90;;;;;;5063898;28;20231;-80
2022/03/28 07:17:43;;;;;;;10.27;6.97;;;7.20;99.90;;;;;;5060685;28;20676;-81
2022/03/28 07:20:10;;;;;;;13.53;7.63;;;7.40;99.90;;;;;;5062070;28;20165;-80
2022/03/28 07:22:36;;;;;;;12.30;7.43;;;7.70;99.90;;;;;;5062109;28;20290;-80
2022/03/28 07:25:02;;;;;;;13.97;7.87;;;7.90;99.90;;;;;;5062579;28;20203;-81
2022/03/28 07:27:28;;;;;;;10.07;7.53;;;8.10;99.90;;;;;;5062760;28;20548;-79
2022/03/28 07:29:54;;;;;;;11.87;7.50;;;8.40;99.90;;;;;;5063592;28;20219;-81
2022/03/28 07:32:19;;;;;;;11.57;6.57;;;8.70;99.90;;;;;;5063501;28;20159;-81
2022/03/28 07:34:46;;;;;;;11.20;7.93;;;9.00;99.90;;;;;;5063264;28;20180;-81
2022/03/28 07:37:13;;;;;;;16.27;7.53;;;9.30;99.90;;;;;;5061579;28;20254;-81
2022/03/28 07:39:40;;;;;;;10.80;7.37;;;9.60;99.70;;;;;;5061067;28;20677;-79
2022/03/28 07:42:11;;;;;;;12.57;7.07;;;9.80;98.60;;;;;;5061649;28;20185;-80
2022/03/28 07:44:37;;;;;;;15.37;7.57;;;10.20;97.20;;;;;;5062966;28;20261;-80
2022/03/28 07:47:04;;;;;;;11.63;7.50;;;10.60;95.90;;;;;;5061954;28;20220;-81
2022/03/28 07:49:34;;;;;;;10.47;7.73;;;10.90;94.40;;;;;;5062384;28;20173;-79
2022/03/28 07:52:00;;;;;;;11.97;7.40;;;11.30;93.20;;;;;;5065343;28;20186;-81
2022/03/28 07:54:25;;;;;;;10.40;7.33;;;11.80;92.00;;;;;;5063629;28;20174;-81
2022/03/28 07:56:51;;;;;;;12.33;7.53;;;11.80;90.70;;;;;;5062226;28;20197;-80
2022/03/28 07:59:17;;;;;;;11.70;6.87;;;12.30;89.80;;;;;;5063708;28;20173;-81
2022/03/28 08:01:43;;;;;;;12.13;7.03;;;12.70;86.80;;;;;;5063634;28;20174;-81
2022/03/28 08:04:09;;;;;;;13.93;7.97;;;13.10;84.80;;;;;;5062181;28;20236;-81
2022/03/28 08:06:34;;;;;;;14.30;7.17;;;13.30;82.90;;;;;;5062461;28;20197;-81
2022/03/28 08:09:00;;;;;;;12.37;7.30;;;14.10;81.30;;;;;;5063249;28;20208;-82
2022/03/28 08:11:27;;;;;;;12.23;7.70;;;14.70;79.70;;;;;;5065594;28;20231;-81
2022/03/28 08:13:53;;;;;;;12.77;7.97;;;15.30;75.30;;;;;;5062272;28;20178;-81
2022/03/28 08:16:19;;;;;;;15.37;8.07;;;15.30;72.60;;;;;;5060675;28;20551;-81
2022/03/28 08:18:44;;;;;;;10.77;7.80;;;15.40;71.50;;;;;;5062877;28;20167;-81
2022/03/28 08:21:10;;;;;;;14.37;8.63;;;15.60;70.50;;;;;;5060585;28;20182;-81
2022/03/28 08:23:36;;;;;;;15.40;9.17;;;15.80;69.50;;;;;;5060455;28;20211;-82
2022/03/28 08:26:02;;;;;;;16.10;9.60;;;16.00;68.80;;;;;;5061827;28;20257;-81
2022/03/28 08:28:28;;;;;;;16.07;9.07;;;16.70;67.80;;;;;;5060548;28;20194;-81
2022/03/28 08:30:54;;;;;;;16.40;9.13;;;17.40;64.90;;;;;;5058987;28;20176;-81
2022/03/28 08:33:19;;;;;;;11.10;8.87;;;18.10;61.50;;;;;;5059191;28;20179;-82
2022/03/28 08:35:45;;;;;;;13.80;9.37;;;18.30;60.80;;;;;;5059736;28;20176;-82
2022/03/28 08:38:11;;;;;;;15.50;9.97;;;18.50;61.00;;;;;;5061261;28;20195;-82
2022/03/28 08:40:36;;;;;;;12.93;10.13;;;18.70;59.10;;;;;;5061505;28;20176;-82
2022/03/28 08:43:04;;;;;;;15.20;9.80;;;18.40;59.20;;;;;;5061798;28;20275;-82
2022/03/28 08:45:30;;;;;;;13.33;9.67;;;19.00;58.00;;;;;;5062334;28;20246;-82
2022/03/28 08:47:56;;;;;;;13.87;9.70;;;19.50;56.20;;;;;;5057829;28;20564;-81
2022/03/28 08:50:22;;;;;;;17.20;10.83;;;19.40;56.10;;;;;;5058339;28;20186;-80
2022/03/28 08:52:48;;;;;;;13.63;10.27;;;19.40;56.70;;;;;;5059950;28;20667;-81
2022/03/28 08:55:15;;;;;;;19.83;11.73;;;19.40;55.20;;;;;;5057514;28;20175;-81
2022/03/28 08:57:41;;;;;;;15.67;10.57;;;19.70;53.40;;;;;;5058812;28;20248;-81
2022/03/28 09:00:10;;;;;;;17.83;12.07;;;20.20;52.30;;;;;;5059382;28;20171;-81
2022/03/28 09:02:41;;;;;;;14.83;11.50;;;20.00;50.00;;;;;;5057727;28;20210;-81
2022/03/28 09:05:18;;;;;;;18.70;12.93;;;19.80;50.40;;;;;;5057702;28;20510;-81
2022/03/28 09:07:44;;;;;;;15.33;12.03;;;19.90;54.90;;;;;;5060075;28;20205;-79
2022/03/28 09:10:18;;;;;;;20.07;13.23;;;19.60;49.30;;;;;;5058611;28;20237;-78
2022/03/28 09:13:06;;;;;;;19.37;13.60;;;19.60;50.00;;;;;;5058463;28;20180;-78
2022/03/28 09:15:47;;;;;;;16.40;11.80;;;19.50;50.20;;;;;;5059299;28;20198;-79
2022/03/28 09:18:35;;;;;;;17.00;12.70;;;19.40;49.70;;;;;;5058852;28;20219;-79
2022/03/28 09:21:02;;;;;;;17.87;12.27;;;19.20;50.70;;;;;;5059625;28;20178;-81
2022/03/28 09:23:40;;;;;;;17.37;12.87;;;19.30;49.50;;;;;;5058934;28;20206;-81
2022/03/28 09:26:16;;;;;;;18.23;11.93;;;19.30;49.20;;;;;;5061097;28;20263;-80
2022/03/28 09:28:46;;;;;;;18.97;13.30;;;19.10;49.60;;;;;;5060732;28;20158;-80
2022/03/28 09:31:20;;;;;;;18.60;13.23;;;19.20;49.70;;;;;;5059358;28;20176;-82
2022/03/28 09:34:16;;;;;;;20.03;12.63;;;19.70;48.80;;;;;;5059772;28;20182;-80
2022/03/28 09:36:51;;;;;;;17.63;13.03;;;20.10;47.80;;;;;;5059198;28;20189;-80
2022/03/28 09:39:32;;;;;;;17.83;13.37;;;20.10;47.40;;;;;;5057517;28;20182;-80
2022/03/28 09:41:58;;;;;;;21.30;13.70;;;19.80;46.70;;;;;;5059533;28;20662;-80
2022/03/28 09:44:49;;;;;;;19.10;11.90;;;20.30;50.90;;;;;;5061197;28;20210;-79
2022/03/28 09:47:20;;;;;;;15.97;12.90;;;20.70;45.60;;;;;;5061150;28;20220;-80
2022/03/28 09:49:49;;;;;;;18.33;13.13;;;20.50;46.20;;;;;;5061293;28;20189;-80
2022/03/28 09:52:25;;;;;;;16.63;13.43;;;20.60;47.60;;;;;;5061238;28;20181;-80
2022/03/28 09:54:54;;;;;;;19.40;12.90;;;21.10;47.20;;;;;;5062772;28;20227;-80
2022/03/28 09:57:23;;;;;;;19.93;13.40;;;20.90;44.70;;;;;;5060013;28;20201;-80
2022/03/28 09:59:50;;;;;;;17.83;13.40;;;20.40;48.20;;;;;;5061822;28;20186;-81
2022/03/28 10:02:24;;;;;;;16.63;13.07;;;20.50;44.30;;;;;;5065130;28;20176;-80
2022/03/28 10:04:53;;;;;;;17.20;12.67;;;20.50;44.20;;;;;;5062391;28;20267;-80
2022/03/28 10:07:20;;;;;;;18.57;13.87;;;20.70;41.70;;;;;;5062345;28;20219;-80
2022/03/28 10:09:47;;;;;;;17.13;12.63;;;20.90;41.90;;;;;;5061860;28;20198;-80
2022/03/28 10:12:13;;;;;;;20.03;13.27;;;21.10;42.70;;;;;;5061718;28;20201;-80
2022/03/28 10:14:39;;;;;;;18.90;11.93;;;21.40;45.90;;;;;;5063568;28;20169;-80
2022/03/28 10:17:06;;;;;;;15.90;12.47;;;21.70;44.30;;;;;;5063174;28;20205;-80
2022/03/28 10:19:34;;;;;;;15.87;13.00;;;21.30;40.50;;;;;;5060740;28;20197;-80
2022/03/28 10:22:09;;;;;;;16.70;12.77;;;21.10;42.80;;;;;;5061915;28;20170;-79
2022/03/28 10:24:36;;;;;;;16.73;12.70;;;21.40;42.00;;;;;;5060306;28;20201;-80
2022/03/28 10:27:03;;;;;;;17.67;12.53;;;21.40;41.10;;;;;;5060564;28;20533;-80
2022/03/28 10:29:38;;;;;;;15.70;11.83;;;21.40;41.50;;;;;;5061715;28;20192;-81
2022/03/28 10:32:12;;;;;;;15.07;12.03;;;21.60;44.20;;;;;;5062454;28;20181;-81
2022/03/28 10:34:48;;;;;;;17.07;11.87;;;22.30;45.70;;;;;;5062050;28;20197;-81
2022/03/28 10:37:38;;;;;;;20.40;14.17;;;22.40;38.70;;;;;;5062892;28;20200;-81
2022/03/28 10:40:19;;;;;;;19.60;13.50;;;22.10;40.30;;;;;;5065206;28;20155;-81
2022/03/28 10:42:49;;;;;;;17.47;12.67;;;22.20;39.80;;;;;;5078945;28;20184;-81
2022/03/28 10:45:19;;;;;;;15.53;11.57;;;21.50;41.20;;;;;;5081414;28;20172;-80
2022/03/28 10:47:46;;;;;;;20.90;13.47;;;21.40;39.20;;;;;;5073659;28;20190;-79
2022/03/28 10:50:16;;;;;;;19.43;12.67;;;21.30;40.10;;;;;;5065727;28;20186;-80
2022/03/28 10:53:18;;;;;;;17.30;11.90;;;21.30;40.70;;;;;;5066797;28;20214;-80
2022/03/28 10:55:53;;;;;;;15.30;11.50;;;22.00;42.20;;;;;;5062386;28;20181;-81
2022/03/28 10:58:39;;;;;;;16.17;11.63;;;22.20;40.60;;;;;;5068897;28;20197;-80
2022/03/28 11:01:07;;;;;;;13.57;11.30;;;22.20;41.10;;;;;;5060958;28;20173;-81
2022/03/28 11:03:38;;;;;;;16.70;11.23;;;22.00;39.80;;;;;;5060752;28;20208;-81
2022/03/28 11:06:05;;;;;;;16.67;12.33;;;22.10;41.40;;;;;;5062308;28;20636;-79
2022/03/28 11:08:38;;;;;;;16.07;12.07;;;22.10;39.50;;;;;;5063609;28;20215;-80
2022/03/28 11:11:21;;;;;;;13.53;11.00;;;22.20;39.30;;;;;;5061529;28;20189;-81
2022/03/28 11:14:05;;;;;;;14.87;11.93;;;21.30;38.70;;;;;;5063291;28;20256;-80
2022/03/28 11:16:50;;;;;;;19.47;12.60;;;21.20;40.90;;;;;;5065430;28;20201;-81
2022/03/28 11:19:25;;;;;;;17.03;12.73;;;21.90;41.60;;;;;;5063960;28;20173;-80
2022/03/28 11:22:03;;;;;;;15.70;12.30;;;22.50;42.80;;;;;;5064074;28;20183;-82
2022/03/28 11:24:56;;;;;;;13.43;11.00;;;22.90;38.80;;;;;;5064953;28;20185;-80
2022/03/28 11:27:30;;;;;;;15.93;12.20;;;22.20;39.80;;;;;;5064254;28;20225;-81
2022/03/28 11:30:05;;;;;;;16.23;12.00;;;21.70;39.20;;;;;;5066621;28;20173;-82
2022/03/28 11:32:33;;;;;;;15.23;11.17;;;22.10;38.60;;;;;;5063640;28;20260;-81
2022/03/28 11:35:02;;;;;;;17.33;12.27;;;21.80;38.00;;;;;;5063065;28;20178;-81
2022/03/28 11:37:29;;;;;;;12.87;11.00;;;22.00;39.10;;;;;;5063506;28;20209;-81
2022/03/28 11:40:02;;;;;;;15.27;11.27;;;22.40;38.70;;;;;;5063941;28;20178;-80
2022/03/28 11:42:29;;;;;;;17.13;12.30;;;22.70;39.20;;;;;;5063634;28;20167;-81
2022/03/28 11:44:57;;;;;;;14.13;10.80;;;22.40;38.30;;;;;;5061514;28;20185;-80
2022/03/28 11:47:23;;;;;;;17.37;11.47;;;22.20;39.50;;;;;;5061463;28;20223;-80
2022/03/28 11:49:59;;;;;;;21.63;12.13;;;22.80;40.40;;;;;;5063380;28;20173;-81
2022/03/28 11:52:26;;;;;;;16.23;11.63;;;23.40;39.30;;;;;;5062173;28;20181;-80
2022/03/28 11:54:57;;;;;;;15.03;12.03;;;23.70;39.20;;;;;;5064776;28;20175;-81
2022/03/28 12:00:24;;;;;;;14.83;11.57;;;24.10;35.50;;;;;;5055565;28;20176;-77
2022/03/28 12:02:55;;;;;;;15.57;11.73;;;23.90;35.50;;;;;;5055929;28;20699;-77
2022/03/28 12:05:33;;;;;;;14.03;11.07;;;23.80;36.80;;;;;;5055801;28;20184;-77
2022/03/28 12:08:00;;;;;;;14.90;11.90;;;23.40;35.70;;;;;;5056495;28;20676;-77
2022/03/28 12:10:32;;;;;;;16.60;11.87;;;23.70;37.70;;;;;;5056308;28;20679;-77
2022/03/28 12:12:59;;;;;;;14.17;11.63;;;23.90;37.20;;;;;;5055953;28;20631;-77
2022/03/28 12:15:40;;;;;;;13.30;11.43;;;24.40;38.60;;;;;;5055695;28;20542;-77
2022/03/28 12:18:08;;;;;;;13.97;11.50;;;24.80;34.60;;;;;;5056269;28;20269;-78
2022/03/28 12:20:36;;;;;;;14.83;11.70;;;24.00;34.50;;;;;;5058446;28;20175;-78
2022/03/28 12:23:04;;;;;;;15.37;11.33;;;23.90;36.70;;;;;;5057692;28;20173;-78
2022/03/28 12:25:43;;;;;;;14.00;11.17;;;24.40;39.60;;;;;;5056505;28;20177;-78
2022/03/28 12:28:15;;;;;;;17.80;11.67;;;24.60;36.40;;;;;;5055368;28;20203;-78
2022/03/28 12:30:47;;;;;;;15.97;11.57;;;24.40;34.70;;;;;;5055306;28;20201;-78
2022/03/28 12:33:18;;;;;;;14.53;11.17;;;24.50;37.10;;;;;;5055988;28;20220;-78
2022/03/28 12:35:47;;;;;;;16.97;10.97;;;25.10;37.60;;;;;;5056830;28;20175;-78
2022/03/28 12:38:20;;;;;;;16.23;11.23;;;25.30;33.50;;;;;;5056307;28;20188;-78
2022/03/28 12:40:50;;;;;;;21.27;11.50;;;24.60;33.50;;;;;;5060581;28;20222;-78
2022/03/28 12:43:17;;;;;;;17.87;12.03;;;24.80;34.00;;;;;;5063532;28;20206;-78
2022/03/28 12:45:43;;;;;;;16.00;11.30;;;25.50;35.50;;;;;;5064032;28;20178;-78
2022/03/28 12:48:11;;;;;;;16.77;11.47;;;25.40;34.10;;;;;;5058889;28;20203;-78
2022/03/28 12:50:49;;;;;;;14.33;11.33;;;25.40;34.00;;;;;;5060706;28;20292;-79
2022/03/28 12:53:17;;;;;;;18.67;11.33;;;25.80;33.80;;;;;;5057069;28;20197;-79